createdAt,value
2023-01-01T00:00:17.245Z,96.70
2023-01-01T00:02:44.116Z,96.80
2023-01-01T00:05:13.119Z,96.80
2023-01-01T00:07:42.188Z,96.70
2023-01-01T00:10:29.519Z,96.70
2023-01-01T00:13:00.335Z,96.70
2023-01-01T00:15:28.039Z,96.70
2023-01-01T00:17:57.875Z,96.70
2023-01-01T00:20:28.693Z,96.80
2023-01-01T00:22:58.410Z,96.80
2023-01-01T00:25:25.354Z,96.80
2023-01-01T00:27:54.657Z,97.00
2023-01-01T00:30:21.474Z,97.00
2023-01-01T00:32:55.591Z,97.00
2023-01-01T00:35:24.971Z,97.00
2023-01-01T00:37:52.776Z,97.10
2023-01-01T00:40:21.687Z,97.10
2023-01-01T00:42:48.359Z,97.10
2023-01-01T00:45:20.898Z,97.10
2023-01-01T00:47:48.361Z,97.00
2023-01-01T00:50:17.194Z,97.00
2023-01-01T00:52:44.096Z,96.90
2023-01-01T00:55:13.994Z,96.90
2023-01-01T00:57:41.309Z,96.90
2023-01-01T01:00:08.723Z,96.90
2023-01-01T01:02:35.597Z,96.90
2023-01-01T01:05:04.756Z,96.90
2023-01-01T01:07:38.644Z,96.80
2023-01-01T01:10:06.189Z,96.70
2023-01-01T01:12:35.065Z,96.70
2023-01-01T01:15:02.449Z,96.70
2023-01-01T01:17:31.443Z,96.60
2023-01-01T01:19:58.164Z,96.60
2023-01-01T01:22:28.899Z,96.60
2023-01-01T01:24:56.262Z,96.70
2023-01-01T01:27:23.358Z,96.70
2023-01-01T01:29:50.052Z,96.70
2023-01-01T01:32:16.749Z,96.70
2023-01-01T01:34:43.457Z,96.80
2023-01-01T01:37:12.877Z,96.90
2023-01-01T01:39:41.824Z,96.90
2023-01-01T01:42:12.590Z,96.90
2023-01-01T01:45:01.698Z,97.00
2023-01-01T01:47:46.526Z,97.00
2023-01-01T01:50:30.429Z,97.40
2023-01-01T01:52:57.097Z,97.10
2023-01-01T01:55:24.792Z,97.10
2023-01-01T01:57:51.739Z,97.10
2023-01-01T02:00:19.742Z,97.10
2023-01-01T02:03:08.319Z,97.10
2023-01-01T02:05:35.961Z,97.00
2023-01-01T02:08:06.150Z,97.00
2023-01-01T02:10:33.419Z,97.00
2023-01-01T02:13:00.463Z,96.90
2023-01-01T02:15:31.413Z,96.80
2023-01-01T02:18:11.792Z,96.70
2023-01-01T02:21:08.466Z,96.60
2023-01-01T02:24:00.843Z,96.50
2023-01-01T02:26:40.582Z,96.50
2023-01-01T02:29:20.089Z,96.40
2023-01-01T02:31:52.870Z,96.40
2023-01-01T02:34:25.641Z,96.40
2023-01-01T02:36:57.742Z,96.60
2023-01-01T02:39:29.283Z,96.30
2023-01-01T02:41:57.857Z,96.30
2023-01-01T02:44:28.623Z,96.40
2023-01-01T02:46:55.550Z,96.40
2023-01-01T02:49:22.278Z,96.40
2023-01-01T02:52:11.336Z,96.40
2023-01-01T02:54:43.225Z,96.40
2023-01-01T02:57:23.828Z,96.40
2023-01-01T03:00:28.386Z,96.40
2023-01-01T03:03:25.197Z,96.40
2023-01-01T03:06:22.862Z,96.40
2023-01-01T03:09:12.472Z,96.50
2023-01-01T03:12:19.005Z,96.70
2023-01-01T03:14:45.665Z,97.00
2023-01-01T03:17:31.590Z,97.10
2023-01-01T03:20:01.380Z,97.30
2023-01-01T03:25:13.368Z,97.70
2023-01-01T03:27:49.013Z,97.80
2023-01-01T03:30:21.183Z,97.90
2023-01-01T03:33:01.497Z,98.00
2023-01-01T03:35:50.739Z,98.10
2023-01-01T03:38:32.612Z,98.10
2023-01-01T03:41:05.122Z,98.20
2023-01-01T03:43:49.404Z,98.10
2023-01-01T03:46:19.817Z,98.10
2023-01-01T03:49:03.716Z,98.10
2023-01-01T03:51:33.272Z,98.10
2023-01-01T03:54:08.764Z,98.00
2023-01-01T03:56:49.883Z,98.00
2023-01-01T03:59:22.303Z,98.00
2023-01-01T04:01:57.159Z,98.00
2023-01-01T04:04:26.863Z,98.10
2023-01-01T04:06:55.027Z,98.20
2023-01-01T04:09:28.517Z,98.30
2023-01-01T04:12:06.623Z,98.50
2023-01-01T04:14:43.294Z,98.60
2023-01-01T04:17:13.601Z,98.70
2023-01-01T04:19:40.401Z,98.80
2023-01-01T04:22:07.211Z,98.90
2023-01-01T04:24:33.957Z,99.00
2023-01-01T04:27:00.728Z,99.10
2023-01-01T04:29:27.456Z,99.20
2023-01-01T04:31:54.181Z,99.30
2023-01-01T04:34:21.064Z,99.40
2023-01-01T04:36:50.061Z,99.50
2023-01-01T04:39:17.017Z,99.60
2023-01-01T04:41:43.714Z,99.70
2023-01-01T04:44:12.917Z,99.70
2023-01-01T04:46:39.756Z,99.80
2023-01-01T04:49:06.463Z,99.90
2023-01-01T04:51:33.210Z,99.90
2023-01-01T04:54:02.565Z,99.90
2023-01-01T04:56:29.640Z,99.90
2023-01-01T04:58:58.516Z,99.90
2023-01-01T05:01:27.532Z,99.90
2023-01-01T05:03:55.605Z,99.90
2023-01-01T05:06:25.544Z,99.90
2023-01-01T05:08:59.216Z,99.90
2023-01-01T05:11:31.643Z,99.90
2023-01-01T05:14:00.224Z,99.90
2023-01-01T05:16:30.575Z,99.90
2023-01-01T05:18:57.954Z,99.90
2023-01-01T05:21:36.578Z,99.90
2023-01-01T05:24:09.081Z,99.80
2023-01-01T05:26:38.806Z,99.80
2023-01-01T05:29:11.906Z,99.80
2023-01-01T05:31:45.254Z,99.80
2023-01-01T05:34:14.612Z,99.80
2023-01-01T05:36:41.523Z,99.80
2023-01-01T05:39:12.888Z,99.80
2023-01-01T05:41:40.713Z,99.80
2023-01-01T05:44:11.585Z,99.70
2023-01-01T05:46:39.387Z,99.80
2023-01-01T05:49:06.151Z,99.80
2023-01-01T05:54:04.734Z,99.80
2023-01-01T05:56:31.625Z,99.90
2023-01-01T05:59:00.610Z,99.90
2023-01-01T06:01:30.400Z,99.90
2023-01-01T06:03:59.064Z,99.90
2023-01-01T06:06:33.706Z,99.90
2023-01-01T06:09:02.240Z,99.90
2023-01-01T06:11:29.853Z,99.90
2023-01-01T06:13:58.748Z,99.90
2023-01-01T06:16:27.050Z,99.90
2023-01-01T06:18:54.189Z,99.90
2023-01-01T06:21:24.108Z,99.90
2023-01-01T06:23:53.679Z,99.90
2023-01-01T06:26:26.669Z,99.90
2023-01-01T06:28:53.379Z,99.90
2023-01-01T06:31:21.815Z,99.90
2023-01-01T06:33:51.854Z,99.90
2023-01-01T06:36:22.592Z,99.90
2023-01-01T06:38:52.502Z,99.90
2023-01-01T06:41:22.179Z,99.90
2023-01-01T06:43:49.302Z,99.90
2023-01-01T06:46:31.041Z,99.90
2023-01-01T06:49:00.305Z,99.90
2023-01-01T06:51:32.789Z,99.90
2023-01-01T06:54:01.322Z,99.90
2023-01-01T06:56:29.172Z,99.90
2023-01-01T06:58:56.250Z,99.90
2023-01-01T07:01:25.420Z,99.90
2023-01-01T07:03:57.092Z,99.90
2023-01-01T07:06:24.305Z,99.90
2023-01-01T07:08:51.535Z,99.90
2023-01-01T07:11:19.050Z,99.90
2023-01-01T07:13:45.929Z,99.90
2023-01-01T07:16:13.727Z,99.90
2023-01-01T07:18:41.041Z,99.90
2023-01-01T07:21:26.637Z,99.90
2023-01-01T07:23:58.049Z,99.90
2023-01-01T07:26:26.111Z,99.90
2023-01-01T07:28:52.988Z,99.90
2023-01-01T07:31:20.000Z,99.90
2023-01-01T07:33:46.799Z,99.90
2023-01-01T07:36:16.268Z,99.80
2023-01-01T07:38:45.128Z,99.80
2023-01-01T07:41:14.148Z,99.80
2023-01-01T07:43:40.885Z,99.80
2023-01-01T07:46:10.577Z,99.70
2023-01-01T07:48:40.151Z,99.70
2023-01-01T07:51:07.206Z,99.60
2023-01-01T07:53:34.325Z,99.50
2023-01-01T07:56:01.129Z,99.50
2023-01-01T07:58:30.031Z,99.50
2023-01-01T08:00:56.756Z,99.50
2023-01-01T08:03:25.687Z,99.80
2023-01-01T08:05:52.586Z,99.40
2023-01-01T08:08:19.275Z,99.40
2023-01-01T08:10:45.999Z,99.30
2023-01-01T08:13:12.679Z,99.40
2023-01-01T08:15:39.390Z,99.40
2023-01-01T08:18:06.427Z,99.30
2023-01-01T08:20:33.544Z,99.30
2023-01-01T08:23:06.345Z,99.30
2023-01-01T08:25:34.795Z,99.30
2023-01-01T08:28:01.593Z,99.30
2023-01-01T08:30:28.489Z,99.40
2023-01-01T08:32:55.305Z,99.40
2023-01-01T08:35:22.010Z,99.40
2023-01-01T08:37:48.906Z,99.50
2023-01-01T08:40:15.638Z,99.50
2023-01-01T08:42:44.541Z,99.50
2023-01-01T08:45:11.440Z,99.50
2023-01-01T08:47:40.541Z,99.50
2023-01-01T08:50:07.995Z,99.50
2023-01-01T08:52:34.676Z,99.50
2023-01-01T08:55:01.396Z,99.50
2023-01-01T08:57:31.468Z,99.40
2023-01-01T08:59:58.249Z,99.40
2023-01-01T09:02:25.096Z,99.40
2023-01-01T09:04:52.012Z,99.70
2023-01-01T09:07:18.823Z,99.40
2023-01-01T09:09:47.842Z,99.40
2023-01-01T09:12:18.788Z,99.50
2023-01-01T09:14:47.903Z,99.50
2023-01-01T09:17:14.794Z,99.50
2023-01-01T09:19:41.533Z,99.50
2023-01-01T09:22:12.155Z,99.50
2023-01-01T09:24:39.315Z,99.50
2023-01-01T09:27:08.856Z,99.50
2023-01-01T09:29:35.605Z,99.50
2023-01-01T09:32:02.363Z,99.50
2023-01-01T09:34:29.125Z,99.50
2023-01-01T09:36:56.010Z,99.60
2023-01-01T09:39:22.774Z,99.60
2023-01-01T09:42:07.596Z,99.50
2023-01-01T09:45:02.271Z,99.40
2023-01-01T09:47:43.347Z,99.40
2023-01-01T09:50:16.712Z,99.30
2023-01-01T09:52:57.418Z,99.20
2023-01-01T09:55:47.393Z,99.20
2023-01-01T09:58:14.978Z,99.20
2023-01-01T10:00:48.136Z,99.20
2023-01-01T10:03:26.769Z,99.20
2023-01-01T10:06:21.567Z,99.30
2023-01-01T10:09:23.877Z,99.40
2023-01-01T10:12:10.571Z,99.30
2023-01-01T10:14:39.293Z,99.30
2023-01-01T10:17:35.266Z,99.30
2023-01-01T10:20:11.522Z,99.40
2023-01-01T10:22:44.563Z,99.50
2023-01-01T10:25:30.697Z,99.60
2023-01-01T10:28:12.327Z,99.90
2023-01-01T10:30:41.199Z,99.80
2023-01-01T10:33:13.561Z,99.90
2023-01-01T10:35:53.548Z,99.90
2023-01-01T10:38:27.017Z,99.90
2023-01-01T10:40:59.841Z,99.90
2023-01-01T10:43:26.572Z,99.90
2023-01-01T10:45:57.465Z,99.90
2023-01-01T10:48:27.012Z,99.90
2023-01-01T10:50:55.766Z,99.90
2023-01-01T10:53:43.833Z,99.90
2023-01-01T10:56:15.230Z,99.90
2023-01-01T10:58:46.488Z,99.90
2023-01-01T11:01:23.894Z,99.90
2023-01-01T11:04:02.704Z,99.90
2023-01-01T11:06:43.039Z,99.90
2023-01-01T11:09:29.343Z,99.90
2023-01-01T11:12:03.732Z,99.90
2023-01-01T11:14:54.517Z,99.90
2023-01-01T11:17:26.496Z,99.90
2023-01-01T11:19:59.776Z,99.90
2023-01-01T11:22:46.796Z,99.90
2023-01-01T11:25:27.142Z,99.90
2023-01-01T11:28:21.344Z,99.90
2023-01-01T11:31:12.485Z,99.90
2023-01-01T11:33:53.395Z,99.90
2023-01-01T11:36:32.538Z,99.90
2023-01-01T11:39:26.769Z,99.90
2023-01-01T11:41:57.952Z,99.90
2023-01-01T11:44:24.618Z,99.90
2023-01-01T11:46:51.702Z,99.90
2023-01-01T11:49:27.978Z,99.90
2023-01-01T11:52:00.681Z,99.90
2023-01-01T11:54:37.376Z,99.90
2023-01-01T11:57:17.293Z,99.90
2023-01-01T11:59:55.667Z,99.90
2023-01-01T12:02:45.467Z,99.90
2023-01-01T12:05:24.699Z,99.90
2023-01-01T12:07:52.326Z,99.90
2023-01-01T12:10:31.310Z,99.90
2023-01-01T12:13:05.134Z,99.90
2023-01-01T12:15:51.756Z,99.90
2023-01-01T12:18:42.089Z,99.90
2023-01-01T12:21:23.731Z,99.90
2023-01-01T12:23:50.522Z,99.90
2023-01-01T12:26:20.040Z,99.90
2023-01-01T12:29:11.677Z,99.90
2023-01-01T12:31:48.476Z,99.90
2023-01-01T12:34:38.213Z,99.90
2023-01-01T12:37:22.953Z,99.90
2023-01-01T12:40:17.027Z,99.90
2023-01-01T12:43:04.257Z,99.90
2023-01-01T12:45:49.419Z,99.90
2023-01-01T12:48:34.875Z,99.90
2023-01-01T12:51:17.735Z,99.90
2023-01-01T12:54:23.180Z,99.90
2023-01-01T12:57:02.958Z,99.90
2023-01-01T12:59:33.781Z,99.90
2023-01-01T13:02:03.750Z,99.90
2023-01-01T13:04:30.958Z,99.90
2023-01-01T13:07:05.767Z,99.90
2023-01-01T13:09:45.353Z,99.90
2023-01-01T13:12:18.844Z,99.90
2023-01-01T13:14:52.034Z,99.90
2023-01-01T13:17:27.623Z,99.90
2023-01-01T13:20:19.398Z,99.90
2023-01-01T13:22:52.723Z,99.90
2023-01-01T13:25:24.679Z,99.90
2023-01-01T13:27:57.867Z,99.90
2023-01-01T13:30:39.653Z,99.90
2023-01-01T13:33:26.792Z,99.90
2023-01-01T13:36:19.908Z,99.90
2023-01-01T13:38:47.334Z,99.90
2023-01-01T13:41:37.526Z,99.90
2023-01-01T13:44:04.265Z,99.90
2023-01-01T13:46:51.852Z,99.90
2023-01-01T13:49:30.189Z,99.90
2023-01-01T13:52:25.186Z,99.90
2023-01-01T13:54:57.382Z,99.90
2023-01-01T13:57:50.748Z,99.90
2023-01-01T14:00:25.193Z,99.90
2023-01-01T14:02:59.303Z,99.90
2023-01-01T14:05:37.116Z,99.90
2023-01-01T14:08:09.912Z,99.90
2023-01-01T14:10:42.127Z,99.90
2023-01-01T14:13:11.280Z,99.90
2023-01-01T14:15:53.083Z,99.90
2023-01-01T14:18:22.739Z,99.90
2023-01-01T14:20:51.668Z,99.90
2023-01-01T14:23:31.837Z,99.90
2023-01-01T14:26:00.688Z,99.90
2023-01-01T14:28:32.978Z,99.90
2023-01-01T14:31:10.455Z,99.90
2023-01-01T14:33:38.571Z,99.90
2023-01-01T14:36:33.028Z,99.90
2023-01-01T14:39:03.544Z,99.90
2023-01-01T14:41:35.907Z,99.90
2023-01-01T14:44:18.474Z,99.90
2023-01-01T14:46:53.732Z,99.90
2023-01-01T14:49:39.218Z,99.90
2023-01-01T14:52:18.561Z,99.90
2023-01-01T14:54:46.337Z,99.90
2023-01-01T14:57:32.437Z,99.90
2023-01-01T14:59:59.492Z,99.90
2023-01-01T15:02:38.433Z,99.90
2023-01-01T15:05:33.315Z,99.90
2023-01-01T15:08:05.151Z,99.90
2023-01-01T15:10:35.467Z,99.90
2023-01-01T15:13:06.476Z,99.90
2023-01-01T15:15:42.352Z,99.90
2023-01-01T15:18:45.728Z,99.90
2023-01-01T15:21:33.591Z,99.90
2023-01-01T15:24:09.993Z,99.90
2023-01-01T15:26:45.079Z,99.90
2023-01-01T15:29:17.732Z,99.90
2023-01-01T15:31:53.622Z,99.90
2023-01-01T15:34:25.131Z,99.90
2023-01-01T15:36:53.400Z,99.90
2023-01-01T15:39:21.083Z,99.90
2023-01-01T15:41:52.677Z,99.90
2023-01-01T15:44:29.656Z,99.90
2023-01-01T15:47:14.056Z,99.90
2023-01-01T15:49:40.838Z,99.90
2023-01-01T15:52:24.059Z,99.90
2023-01-01T15:54:50.832Z,99.90
2023-01-01T15:57:21.080Z,99.90
2023-01-01T15:59:50.623Z,99.90
2023-01-01T16:02:36.483Z,99.90
2023-01-01T16:05:03.540Z,99.90
2023-01-01T16:07:32.913Z,99.90
2023-01-01T16:09:59.664Z,99.90
2023-01-01T16:12:26.530Z,99.90
2023-01-01T16:14:53.257Z,99.90
2023-01-01T16:17:21.153Z,99.90
2023-01-01T16:19:48.279Z,99.90
2023-01-01T16:22:17.344Z,99.90
2023-01-01T16:24:45.421Z,99.90
2023-01-01T16:27:12.846Z,99.90
2023-01-01T16:29:43.208Z,99.90
2023-01-01T16:32:19.619Z,99.90
2023-01-01T16:34:48.933Z,99.90
2023-01-01T16:37:22.407Z,99.90
2023-01-01T16:39:52.171Z,99.90
2023-01-01T16:42:19.062Z,99.90
2023-01-01T16:44:45.765Z,99.90
2023-01-01T16:47:12.636Z,99.90
2023-01-01T16:49:39.357Z,99.90
2023-01-01T16:52:08.279Z,99.90
2023-01-01T16:54:36.120Z,99.90
2023-01-01T16:57:03.036Z,99.90
2023-01-01T16:59:29.772Z,99.90
2023-01-01T17:01:56.719Z,99.90
2023-01-01T17:04:25.756Z,99.90
2023-01-01T17:06:54.696Z,99.90
2023-01-01T17:09:23.620Z,99.90
2023-01-01T17:11:50.354Z,99.90
2023-01-01T17:14:17.172Z,99.90
2023-01-01T17:16:44.010Z,99.90
2023-01-01T17:19:15.691Z,99.90
2023-01-01T17:21:46.772Z,99.90
2023-01-01T17:24:14.437Z,99.90
2023-01-01T17:26:41.157Z,99.90
2023-01-01T17:29:08.047Z,99.90
2023-01-01T17:31:35.200Z,99.90
2023-01-01T17:34:02.489Z,99.90
2023-01-01T17:36:29.356Z,99.90
2023-01-01T17:38:56.611Z,99.90
2023-01-01T17:41:23.589Z,99.90
2023-01-01T17:43:53.768Z,99.90
2023-01-01T17:46:25.691Z,99.90
2023-01-01T17:48:52.619Z,99.90
2023-01-01T17:51:22.888Z,99.90
2023-01-01T17:53:50.622Z,99.90
2023-01-01T17:56:18.836Z,99.90
2023-01-01T17:58:47.202Z,99.90
2023-01-01T18:01:31.559Z,99.90
2023-01-01T18:04:03.988Z,99.90
2023-01-01T18:06:35.063Z,99.90
2023-01-01T18:09:07.655Z,99.90
2023-01-01T18:11:37.080Z,99.90
2023-01-01T18:14:04.683Z,99.90
2023-01-01T18:16:33.825Z,99.90
2023-01-01T18:19:01.442Z,99.90
2023-01-01T18:21:28.388Z,99.90
2023-01-01T18:24:02.108Z,99.90
2023-01-01T18:26:35.770Z,99.90
2023-01-01T18:29:08.457Z,99.90
2023-01-01T18:31:38.345Z,99.90
2023-01-01T18:34:08.390Z,99.90
2023-01-01T18:36:40.574Z,99.90
2023-01-01T18:39:29.621Z,99.90
2023-01-01T18:42:22.244Z,99.90
2023-01-01T18:44:52.254Z,99.90
2023-01-01T18:47:24.999Z,99.90
2023-01-01T18:50:15.688Z,99.90
2023-01-01T18:52:47.370Z,99.90
2023-01-01T18:55:15.179Z,99.90
2023-01-01T18:57:49.392Z,99.90
2023-01-01T19:00:26.003Z,99.90
2023-01-01T19:03:03.384Z,99.90
2023-01-01T19:05:35.374Z,99.90
2023-01-01T19:08:08.158Z,99.90
2023-01-01T19:10:37.505Z,99.90
2023-01-01T19:13:20.369Z,99.90
2023-01-01T19:15:50.906Z,99.90
2023-01-01T19:18:28.061Z,99.90
2023-01-01T19:21:13.106Z,99.90
2023-01-01T19:23:53.523Z,99.90
2023-01-01T19:26:29.083Z,99.90
2023-01-01T19:29:09.899Z,99.90
2023-01-01T19:31:38.991Z,99.90
2023-01-01T19:34:08.864Z,99.90
2023-01-01T19:36:38.962Z,99.90
2023-01-01T19:39:08.808Z,99.90
2023-01-01T19:41:36.462Z,99.90
2023-01-01T19:44:10.526Z,99.90
2023-01-01T19:46:43.189Z,99.90
2023-01-01T19:49:12.428Z,99.90
2023-01-01T19:51:43.923Z,99.90
2023-01-01T19:54:18.453Z,99.90
2023-01-01T19:56:48.808Z,99.90
2023-01-01T19:59:18.345Z,99.90
2023-01-01T20:02:17.811Z,99.90
2023-01-01T20:04:39.578Z,99.90
2023-01-01T20:07:06.565Z,99.90
2023-01-01T20:09:35.748Z,99.90
2023-01-01T20:12:02.570Z,99.90
2023-01-01T20:14:29.414Z,99.90
2023-01-01T20:16:56.703Z,99.90
2023-01-01T20:19:23.654Z,99.90
2023-01-01T20:22:08.795Z,99.90
2023-01-01T20:24:36.850Z,99.90
2023-01-01T20:27:04.188Z,99.90
2023-01-01T20:29:31.142Z,99.90
2023-01-01T20:31:59.113Z,99.90
2023-01-01T20:34:28.725Z,99.90
2023-01-01T20:37:13.918Z,99.90
2023-01-01T20:39:40.703Z,99.90
2023-01-01T20:42:07.487Z,99.90
2023-01-01T20:44:35.694Z,99.90
2023-01-01T20:47:04.948Z,99.90
2023-01-01T20:49:31.726Z,99.90
2023-01-01T20:51:58.436Z,99.90
2023-01-01T20:54:25.319Z,99.90
2023-01-01T20:56:52.459Z,99.90
2023-01-01T20:59:35.448Z,99.90
2023-01-01T21:02:05.535Z,99.90
2023-01-01T21:04:38.813Z,99.90
2023-01-01T21:07:10.716Z,99.90
2023-01-01T21:09:38.556Z,99.90
2023-01-01T21:12:06.319Z,99.90
2023-01-01T21:14:33.358Z,99.90
2023-01-01T21:17:09.889Z,99.90
2023-01-01T21:19:38.951Z,99.90
2023-01-01T21:22:10.512Z,99.90
2023-01-01T21:24:40.011Z,99.90
2023-01-01T21:27:22.837Z,99.90
2023-01-01T21:29:52.764Z,99.90
2023-01-01T21:32:22.252Z,99.90
2023-01-01T21:34:51.216Z,99.90
2023-01-01T21:37:47.662Z,99.90
2023-01-01T21:40:49.005Z,99.90
2023-01-01T21:43:24.764Z,99.90
2023-01-01T21:45:52.054Z,99.90
2023-01-01T21:48:31.241Z,99.90
2023-01-01T21:51:00.639Z,99.90
2023-01-01T21:53:30.093Z,99.90
2023-01-01T21:56:02.596Z,99.90
2023-01-01T21:58:57.470Z,99.90
2023-01-01T22:01:35.956Z,99.90
2023-01-01T22:04:20.244Z,99.90
2023-01-01T22:06:52.316Z,99.90
2023-01-01T22:09:30.547Z,99.90
2023-01-01T22:12:21.825Z,99.90
2023-01-01T22:14:52.682Z,99.90
2023-01-01T22:17:22.648Z,99.90
2023-01-01T22:19:50.325Z,99.90
2023-01-01T22:22:21.669Z,99.90
2023-01-01T22:25:06.268Z,99.90
2023-01-01T22:27:36.738Z,99.90
2023-01-01T22:30:11.139Z,99.90
2023-01-01T22:32:40.282Z,99.90
2023-01-01T22:35:18.014Z,99.90
2023-01-01T22:37:55.518Z,99.90
2023-01-01T22:40:34.089Z,99.90
2023-01-01T22:43:27.529Z,99.90
2023-01-01T22:45:54.421Z,99.90
2023-01-01T22:48:33.129Z,99.90
2023-01-01T22:51:10.306Z,99.90
2023-01-01T22:53:39.734Z,99.90
2023-01-01T22:56:06.882Z,99.90
2023-01-01T22:58:33.610Z,99.90
2023-01-01T23:01:02.598Z,99.90
2023-01-01T23:03:31.627Z,99.90
2023-01-01T23:05:59.632Z,99.90
2023-01-01T23:08:32.696Z,99.90
2023-01-01T23:11:00.570Z,99.90
2023-01-01T23:13:45.801Z,99.90
2023-01-01T23:16:12.923Z,99.90
2023-01-01T23:18:39.744Z,99.90
2023-01-01T23:21:22.711Z,99.90
2023-01-01T23:23:56.185Z,99.90
2023-01-01T23:26:27.181Z,99.90
2023-01-01T23:28:55.147Z,99.90
2023-01-01T23:31:25.884Z,99.90
2023-01-01T23:33:54.736Z,99.90
2023-01-01T23:36:24.736Z,99.90
2023-01-01T23:38:51.493Z,99.90
2023-01-01T23:41:18.280Z,99.90
2023-01-01T23:43:47.203Z,99.90
2023-01-01T23:46:17.492Z,99.90
2023-01-01T23:48:45.562Z,99.90
2023-01-01T23:51:13.226Z,99.90
2023-01-01T23:53:42.303Z,99.90
2023-01-01T23:56:12.000Z,99.90
2023-01-01T23:58:41.254Z,99.90
